createdAt,value
2023-01-12T00:02:21.193Z,157403.72
2023-01-12T00:04:49.168Z,157402.41
2023-01-12T00:07:18.478Z,157389.13
2023-01-12T00:09:46.506Z,157402.41
2023-01-12T00:12:14.902Z,157407.72
2023-01-12T00:14:42.855Z,157403.72
2023-01-12T00:17:12.323Z,157411.69
2023-01-12T00:19:40.434Z,157402.41
2023-01-12T00:22:11.927Z,157414.38
2023-01-12T00:24:45.526Z,157399.75
2023-01-12T00:27:16.637Z,157415.69
2023-01-12T00:29:44.727Z,157414.38
2023-01-12T00:32:18.059Z,157414.38
2023-01-12T00:34:45.933Z,157410.34
2023-01-12T00:37:14.616Z,157403.72
2023-01-12T00:39:53.136Z,157401.09
2023-01-12T00:42:43.493Z,157421.00
2023-01-12T00:45:23.128Z,157411.69
2023-01-12T00:47:52.311Z,157432.91
2023-01-12T00:50:20.013Z,157432.91
2023-01-12T00:52:47.725Z,157451.53
2023-01-12T00:55:15.861Z,157446.19
2023-01-12T00:57:43.945Z,157462.13
2023-01-12T01:00:12.055Z,157471.44
2023-01-12T01:02:40.354Z,157475.41
2023-01-12T01:05:08.990Z,157483.34
2023-01-12T01:07:38.348Z,157491.38
2023-01-12T01:10:06.307Z,157500.66
2023-01-12T01:12:34.261Z,157505.97
2023-01-12T01:15:01.989Z,157517.88
2023-01-12T01:17:30.143Z,157525.91
2023-01-12T01:19:58.003Z,157529.84
2023-01-12T01:22:26.230Z,157525.91
2023-01-12T01:24:53.937Z,157536.50
2023-01-12T01:27:22.114Z,157536.50
2023-01-12T01:29:49.903Z,157540.50
2023-01-12T01:32:18.109Z,157543.13
2023-01-12T01:34:47.431Z,157536.50
2023-01-12T01:37:15.228Z,157547.13
2023-01-12T01:39:42.951Z,157552.41
2023-01-12T01:42:28.343Z,157561.75
2023-01-12T01:44:58.564Z,157555.09
2023-01-12T01:47:32.178Z,157544.44
2023-01-12T01:50:01.465Z,157568.38
2023-01-12T01:52:37.167Z,157567.03
2023-01-12T01:55:10.622Z,157563.06
2023-01-12T01:57:48.799Z,157578.97
2023-01-12T02:00:17.089Z,157583.00
2023-01-12T02:02:46.994Z,157585.63
2023-01-12T02:05:20.376Z,157589.63
2023-01-12T02:07:49.873Z,157594.91
2023-01-12T02:10:18.136Z,157594.91
2023-01-12T02:13:04.920Z,157612.19
2023-01-12T02:16:18.137Z,157614.84
2023-01-12T02:18:56.464Z,157613.53
2023-01-12T02:21:46.925Z,157617.53
2023-01-12T02:24:59.731Z,157634.78
2023-01-12T02:27:41.237Z,157637.41
2023-01-12T02:30:09.196Z,157634.78
2023-01-12T02:33:04.291Z,157646.75
2023-01-12T02:35:53.040Z,157652.06
2023-01-12T02:38:46.108Z,157649.38
2023-01-12T02:41:20.207Z,157653.38
2023-01-12T02:43:47.933Z,157636.09
2023-01-12T02:46:29.509Z,157642.72
2023-01-12T02:49:05.522Z,157644.06
2023-01-12T02:51:41.552Z,157648.06
2023-01-12T02:54:15.169Z,157645.41
2023-01-12T02:56:49.715Z,157658.66
2023-01-12T02:59:29.377Z,157668.00
2023-01-12T03:02:01.973Z,157674.63
2023-01-12T03:04:32.420Z,157685.25
2023-01-12T03:07:00.395Z,157690.56
2023-01-12T03:09:41.696Z,157698.53
2023-01-12T03:12:14.625Z,157705.19
2023-01-12T03:14:46.660Z,157711.81
2023-01-12T03:17:28.452Z,157726.44
2023-01-12T03:19:57.927Z,157730.44
2023-01-12T03:22:26.482Z,157731.75
2023-01-12T03:24:58.229Z,157743.72
2023-01-12T03:27:30.877Z,157735.72
2023-01-12T03:30:01.594Z,157739.72
2023-01-12T03:32:29.969Z,157737.09
2023-01-12T03:34:58.693Z,157741.03
2023-01-12T03:37:28.654Z,157749.00
2023-01-12T03:40:03.905Z,157751.69
2023-01-12T03:42:50.088Z,157765.00
2023-01-12T03:45:42.630Z,157763.63
2023-01-12T03:48:17.706Z,157770.28
2023-01-12T03:51:01.645Z,157776.91
2023-01-12T03:53:31.416Z,157783.56
2023-01-12T03:56:05.868Z,157778.28
2023-01-12T03:58:35.429Z,157786.25
2023-01-12T04:01:04.228Z,157786.25
2023-01-12T04:03:32.925Z,157788.91
2023-01-12T04:06:00.981Z,157796.84
2023-01-12T04:08:29.923Z,157796.84
2023-01-12T04:10:57.721Z,157807.53
2023-01-12T04:13:26.193Z,157818.13
2023-01-12T04:15:53.964Z,157826.09
2023-01-12T04:18:21.930Z,157822.13
2023-01-12T04:20:50.136Z,157828.78
2023-01-12T04:23:18.376Z,157840.72
2023-01-12T04:25:46.185Z,157830.09
2023-01-12T04:28:17.150Z,157856.69
2023-01-12T04:30:44.495Z,157855.38
2023-01-12T04:33:12.797Z,157848.72
2023-01-12T04:35:40.791Z,157851.38
2023-01-12T04:38:09.941Z,157861.97
2023-01-12T04:40:37.889Z,157871.31
2023-01-12T04:43:08.589Z,157870.00
2023-01-12T04:45:39.571Z,157876.63
2023-01-12T04:48:11.263Z,157891.25
2023-01-12T04:50:39.919Z,157896.53
2023-01-12T04:53:10.788Z,157895.22
2023-01-12T04:55:41.133Z,157897.91
2023-01-12T04:58:10.459Z,157916.47
2023-01-12T05:00:38.296Z,157908.50
2023-01-12T05:03:06.662Z,157911.16
2023-01-12T05:05:34.394Z,157907.19
2023-01-12T05:08:22.905Z,157905.88
2023-01-12T05:10:55.545Z,157919.19
2023-01-12T05:13:24.081Z,157937.75
2023-01-12T05:15:51.785Z,157923.13
2023-01-12T05:18:20.308Z,157933.78
2023-01-12T05:20:48.059Z,157932.47
2023-01-12T05:23:16.673Z,157932.47
2023-01-12T05:25:44.363Z,157940.44
2023-01-12T05:28:12.587Z,157951.06
2023-01-12T05:30:40.336Z,157945.72
2023-01-12T05:33:16.094Z,157948.41
2023-01-12T05:35:43.832Z,157969.69
2023-01-12T05:38:12.397Z,157964.34
2023-01-12T05:40:40.798Z,157952.38
2023-01-12T05:43:31.338Z,157972.31
2023-01-12T05:46:04.016Z,157968.38
2023-01-12T05:48:32.956Z,157976.34
2023-01-12T05:51:04.127Z,157977.66
2023-01-12T05:53:32.794Z,157971.00
2023-01-12T05:56:10.203Z,157967.00
2023-01-12T05:58:38.740Z,157968.38
2023-01-12T06:01:08.482Z,157982.97
2023-01-12T06:03:38.109Z,157980.28
2023-01-12T06:06:06.887Z,157981.66
2023-01-12T06:08:35.305Z,157989.63
2023-01-12T06:11:04.002Z,157988.28
2023-01-12T06:13:50.755Z,157985.63
2023-01-12T06:16:18.501Z,157993.59
2023-01-12T06:18:46.438Z,157989.63
2023-01-12T06:21:14.236Z,157990.97
2023-01-12T06:23:42.592Z,157992.28
2023-01-12T06:26:10.801Z,157988.28
2023-01-12T06:28:40.923Z,157989.63
2023-01-12T06:31:10.684Z,158000.25
2023-01-12T06:33:39.291Z,157993.59
2023-01-12T06:36:07.940Z,158004.25
2023-01-12T06:38:39.663Z,158009.59
2023-01-12T06:41:29.885Z,158009.59
2023-01-12T06:43:58.458Z,158017.56
2023-01-12T06:46:28.125Z,158016.19
2023-01-12T06:48:57.850Z,158018.88
2023-01-12T06:51:26.343Z,158037.47
2023-01-12T06:53:55.062Z,158030.88
2023-01-12T06:56:23.644Z,158025.53
2023-01-12T06:58:52.133Z,158038.84
2023-01-12T07:01:20.196Z,158050.78
2023-01-12T07:03:48.534Z,158052.16
2023-01-12T07:06:17.193Z,158049.44
2023-01-12T07:08:45.720Z,158056.09
2023-01-12T07:11:15.364Z,158060.13
2023-01-12T07:13:43.743Z,158064.06
2023-01-12T07:16:11.773Z,158064.06
2023-01-12T07:18:40.259Z,158072.06
2023-01-12T07:21:09.345Z,158085.34
2023-01-12T07:23:42.593Z,158077.38
2023-01-12T07:26:11.270Z,158078.69
2023-01-12T07:28:40.028Z,158072.06
2023-01-12T07:31:08.175Z,158082.72
2023-01-12T07:33:38.325Z,158089.38
2023-01-12T07:36:07.047Z,158094.69
2023-01-12T07:38:35.411Z,158111.97
2023-01-12T07:41:04.126Z,158114.59
2023-01-12T07:43:33.913Z,158122.63
2023-01-12T07:46:02.364Z,158115.97
2023-01-12T07:48:30.967Z,158119.94
2023-01-12T07:50:59.594Z,158121.25
2023-01-12T07:53:28.305Z,158139.91
2023-01-12T07:55:58.979Z,158139.91
2023-01-12T07:58:28.039Z,158149.25
2023-01-12T08:00:59.510Z,158149.25
2023-01-12T08:03:28.289Z,158146.59
2023-01-12T08:05:57.765Z,158149.25
2023-01-12T08:08:26.375Z,158137.25
2023-01-12T08:10:54.276Z,158150.63
2023-01-12T08:13:25.834Z,158150.63
2023-01-12T08:15:55.290Z,158155.91
2023-01-12T08:18:27.475Z,158151.94
2023-01-12T08:20:57.515Z,158150.63
2023-01-12T08:23:33.232Z,158151.94
2023-01-12T08:26:04.838Z,158161.25
2023-01-12T08:28:38.941Z,158163.88
2023-01-12T08:31:10.178Z,158175.88
2023-01-12T08:33:39.062Z,158175.88
2023-01-12T08:36:09.830Z,158183.84
2023-01-12T08:38:38.503Z,158199.84
2023-01-12T08:41:24.561Z,158211.78
2023-01-12T08:44:11.475Z,158230.44
2023-01-12T08:46:49.883Z,158257.06
2023-01-12T08:49:21.394Z,158291.66
2023-01-12T08:51:50.099Z,158318.22
2023-01-12T08:54:19.904Z,158364.84
2023-01-12T08:56:48.251Z,158390.16
2023-01-12T08:59:17.031Z,158400.78
2023-01-12T09:01:45.680Z,158395.44
2023-01-12T09:04:14.140Z,158426.09
2023-01-12T09:06:43.878Z,158448.72
2023-01-12T09:09:15.746Z,158454.03
2023-01-12T09:11:44.614Z,158471.31
2023-01-12T09:14:14.563Z,158454.03
2023-01-12T09:16:42.991Z,158460.69
2023-01-12T09:19:11.651Z,158442.03
2023-01-12T09:21:40.774Z,158414.09
2023-01-12T09:24:09.283Z,158380.78
2023-01-12T09:26:40.112Z,158424.75
2023-01-12T09:29:09.399Z,158471.31
2023-01-12T09:31:38.082Z,158545.91
2023-01-12T09:34:06.789Z,158649.81
2023-01-12T09:36:38.709Z,158723.06
2023-01-12T09:39:15.388Z,158789.78
2023-01-12T09:42:07.391Z,158797.75
2023-01-12T09:45:05.893Z,158715.09
2023-01-12T09:47:53.999Z,158621.84
2023-01-12T09:50:26.434Z,158581.88
2023-01-12T09:52:56.196Z,158565.91
2023-01-12T09:55:26.727Z,158539.25
2023-01-12T09:58:16.117Z,158520.59
2023-01-12T10:00:44.655Z,158478.00
2023-01-12T10:03:32.298Z,158503.31
2023-01-12T10:06:03.780Z,158509.97
2023-01-12T10:08:34.813Z,158519.28
2023-01-12T10:11:30.681Z,158525.94
2023-01-12T10:14:20.121Z,158545.91
2023-01-12T10:16:54.311Z,158547.25
2023-01-12T10:19:59.584Z,158572.56
2023-01-12T10:22:41.775Z,158601.84
2023-01-12T10:25:22.502Z,158593.88
2023-01-12T10:27:53.943Z,158609.84
2023-01-12T10:30:29.084Z,158635.19
2023-01-12T10:32:58.086Z,158651.16
2023-01-12T10:35:26.205Z,158675.09
2023-01-12T10:37:56.591Z,158691.13
2023-01-12T10:40:32.981Z,158705.78
2023-01-12T10:43:32.221Z,158717.72
2023-01-12T10:46:27.645Z,158728.41
2023-01-12T10:49:19.485Z,158749.72
2023-01-12T10:52:22.682Z,158763.06
2023-01-12T10:54:50.927Z,158773.69
2023-01-12T10:57:23.857Z,158773.69
2023-01-12T10:59:55.517Z,158801.72
2023-01-12T11:02:26.147Z,158803.06
2023-01-12T11:04:54.914Z,158828.41
2023-01-12T11:07:29.377Z,158852.38
2023-01-12T11:10:19.293Z,158863.06
2023-01-12T11:12:59.277Z,158869.72
2023-01-12T11:15:28.957Z,158885.72
2023-01-12T11:18:04.494Z,158891.06
2023-01-12T11:21:09.455Z,158916.41
2023-01-12T11:24:16.616Z,158900.38
2023-01-12T11:26:51.081Z,158928.34
2023-01-12T11:29:50.221Z,158952.38
2023-01-12T11:32:38.901Z,158940.38
2023-01-12T11:35:37.734Z,158965.72
2023-01-12T11:38:14.408Z,158979.00
2023-01-12T11:40:42.955Z,158985.69
2023-01-12T11:43:32.386Z,158977.69
2023-01-12T11:46:26.958Z,158944.41
2023-01-12T11:49:20.258Z,158937.72
2023-01-12T11:51:56.891Z,158940.38
2023-01-12T11:54:26.801Z,158908.34
2023-01-12T11:57:19.658Z,158933.72
2023-01-12T11:59:57.613Z,158919.03
2023-01-12T12:02:37.816Z,158935.03
2023-01-12T12:05:37.270Z,158924.38
2023-01-12T12:08:14.791Z,158923.00
2023-01-12T12:10:49.063Z,158912.38
2023-01-12T12:13:33.747Z,158881.72
2023-01-12T12:16:19.927Z,158876.41
2023-01-12T12:19:19.285Z,158867.09
2023-01-12T12:22:16.526Z,158844.38
2023-01-12T12:25:03.125Z,158851.03
2023-01-12T12:27:38.288Z,158837.72
2023-01-12T12:30:43.375Z,158840.41
2023-01-12T12:33:32.660Z,158808.41
2023-01-12T12:36:25.694Z,158805.75
2023-01-12T12:39:29.471Z,158792.41
2023-01-12T12:42:25.087Z,158789.78
2023-01-12T12:45:19.391Z,158785.75
2023-01-12T12:47:59.861Z,158768.34
2023-01-12T12:50:31.721Z,158777.72
2023-01-12T12:53:25.801Z,158787.09
2023-01-12T12:55:55.218Z,158787.09
2023-01-12T12:58:26.785Z,158763.06
2023-01-12T13:00:57.347Z,158776.41
2023-01-12T13:03:43.935Z,158772.38
2023-01-12T13:06:31.204Z,158772.38
2023-01-12T13:09:19.430Z,158764.38
2023-01-12T13:11:57.927Z,158735.06
2023-01-12T13:15:10.448Z,158724.41
2023-01-12T13:17:44.065Z,158727.09
2023-01-12T13:20:24.541Z,158725.72
2023-01-12T13:22:53.588Z,158736.41
2023-01-12T13:25:23.281Z,158720.44
2023-01-12T13:28:00.718Z,158717.72
2023-01-12T13:30:31.605Z,158713.75
2023-01-12T13:33:19.973Z,158711.06
2023-01-12T13:35:47.701Z,158701.75
2023-01-12T13:38:44.312Z,158712.44
2023-01-12T13:41:15.277Z,158696.41
2023-01-12T13:44:02.563Z,158689.75
2023-01-12T13:46:37.808Z,158672.47
2023-01-12T13:49:35.988Z,158655.13
2023-01-12T13:52:17.459Z,158648.44
2023-01-12T13:54:50.718Z,158645.81
2023-01-12T13:57:25.323Z,158628.50
2023-01-12T14:00:01.275Z,158624.50
2023-01-12T14:02:31.551Z,158625.81
2023-01-12T14:05:37.691Z,158608.53
2023-01-12T14:08:34.382Z,158596.50
2023-01-12T14:11:07.518Z,158581.88
2023-01-12T14:14:23.186Z,158559.25
2023-01-12T14:17:10.519Z,158565.91
2023-01-12T14:19:41.061Z,158548.56
2023-01-12T14:22:19.837Z,158520.59
2023-01-12T14:24:47.768Z,158513.94
2023-01-12T14:27:27.663Z,158505.94
2023-01-12T14:29:56.294Z,158504.63
2023-01-12T14:32:25.050Z,158499.28
2023-01-12T14:34:54.620Z,158488.66
2023-01-12T14:37:33.268Z,158472.66
2023-01-12T14:40:01.244Z,158456.69
2023-01-12T14:42:48.044Z,158434.06
2023-01-12T14:45:44.443Z,158416.72
2023-01-12T14:48:30.662Z,158402.09
2023-01-12T14:51:18.901Z,158396.81
2023-01-12T14:53:48.862Z,158410.13
2023-01-12T14:56:21.232Z,158395.44
2023-01-12T14:58:50.124Z,158388.81
2023-01-12T15:01:35.158Z,158368.84
2023-01-12T15:04:05.671Z,158375.50
2023-01-12T15:06:43.219Z,158356.84
2023-01-12T15:09:53.152Z,158330.22
2023-01-12T15:12:40.039Z,158346.19
2023-01-12T15:15:21.639Z,158316.91
2023-01-12T15:18:09.713Z,158320.91
2023-01-12T15:21:01.263Z,158319.59
2023-01-12T15:23:55.218Z,158310.25
2023-01-12T15:26:23.093Z,158308.94
2023-01-12T15:28:51.651Z,158298.31
2023-01-12T15:31:29.104Z,158282.31
2023-01-12T15:33:57.566Z,158278.34
2023-01-12T15:36:25.649Z,158275.66
2023-01-12T15:38:53.963Z,158266.34
2023-01-12T15:41:45.555Z,158254.34
2023-01-12T15:44:18.370Z,158241.03
2023-01-12T15:46:46.687Z,158223.78
2023-01-12T15:49:15.317Z,158219.75
2023-01-12T15:51:47.746Z,158233.06
2023-01-12T15:54:18.376Z,158222.44
2023-01-12T15:56:48.130Z,158225.09
2023-01-12T15:59:16.757Z,158218.44
2023-01-12T16:01:50.010Z,158230.44
2023-01-12T16:07:11.228Z,158209.16
2023-01-12T16:09:41.580Z,158211.78
2023-01-12T16:12:11.064Z,158206.50
2023-01-12T16:14:38.737Z,158202.47
2023-01-12T16:17:06.923Z,158201.16
2023-01-12T16:19:41.588Z,158201.16
2023-01-12T16:22:16.327Z,158195.84
2023-01-12T16:24:44.654Z,158177.19
2023-01-12T16:27:12.862Z,158181.19
2023-01-12T16:29:40.519Z,158169.22
2023-01-12T16:32:09.208Z,158171.91
2023-01-12T16:34:37.293Z,158165.25
2023-01-12T16:37:05.927Z,158159.91
2023-01-12T16:39:33.783Z,158147.94
2023-01-12T16:42:05.262Z,158143.97
2023-01-12T16:44:37.647Z,158134.56
2023-01-12T16:47:18.232Z,158108.00
2023-01-12T16:49:49.331Z,158113.28
2023-01-12T16:52:19.959Z,158115.97
2023-01-12T16:54:47.954Z,158097.34
2023-01-12T16:57:17.816Z,158108.00
2023-01-12T16:59:46.189Z,158108.00
2023-01-12T17:02:16.046Z,158108.00
2023-01-12T17:04:45.296Z,158109.31
2023-01-12T17:07:13.235Z,158110.66
2023-01-12T17:09:41.429Z,158101.34
2023-01-12T17:12:09.887Z,158089.38
2023-01-12T17:14:37.857Z,158086.69
2023-01-12T17:17:08.683Z,158080.06
2023-01-12T17:19:38.692Z,158085.34
2023-01-12T17:22:08.178Z,158065.41
2023-01-12T17:24:37.401Z,158082.72
2023-01-12T17:27:06.158Z,158077.38
2023-01-12T17:29:34.114Z,158078.69
2023-01-12T17:32:06.752Z,158073.41
2023-01-12T17:34:36.987Z,158058.78
2023-01-12T17:37:08.607Z,158052.16
2023-01-12T17:39:43.492Z,158037.47
2023-01-12T17:42:35.818Z,158028.19
2023-01-12T17:45:04.456Z,158020.19
2023-01-12T17:47:33.182Z,158020.19
2023-01-12T17:50:01.306Z,158012.22
2023-01-12T17:52:29.708Z,158014.88
2023-01-12T17:54:57.956Z,158018.88
2023-01-12T17:57:26.650Z,158025.53
2023-01-12T17:59:54.379Z,158009.59
2023-01-12T18:02:22.969Z,158016.19
2023-01-12T18:04:51.080Z,158009.59
2023-01-12T18:07:19.221Z,158001.56
2023-01-12T18:09:47.241Z,157988.28
2023-01-12T18:12:16.640Z,157984.31
2023-01-12T18:14:44.416Z,157975.00
2023-01-12T18:17:13.002Z,157978.97
2023-01-12T18:19:42.421Z,157982.97
2023-01-12T18:22:11.140Z,157984.31
2023-01-12T18:24:39.253Z,157968.38
2023-01-12T18:27:08.172Z,157961.72
2023-01-12T18:29:35.825Z,157985.63
2023-01-12T18:32:04.303Z,157961.72
2023-01-12T18:34:32.082Z,157967.00
2023-01-12T18:37:00.755Z,157976.34
2023-01-12T18:39:28.438Z,157963.03
2023-01-12T18:42:15.070Z,157969.69
2023-01-12T18:44:43.015Z,157972.31
2023-01-12T18:47:33.266Z,157984.31
2023-01-12T18:50:21.187Z,157992.28
2023-01-12T18:53:08.164Z,157996.28
2023-01-12T18:55:38.795Z,157986.94
2023-01-12T18:58:07.155Z,157977.66
2023-01-12T19:00:34.936Z,157990.97
2023-01-12T19:03:04.577Z,157977.66
2023-01-12T19:05:42.791Z,157989.63
2023-01-12T19:08:37.132Z,157985.63
2023-01-12T19:11:11.942Z,157982.97
2023-01-12T19:13:59.240Z,157990.97
2023-01-12T19:16:46.324Z,157981.66
2023-01-12T19:19:14.801Z,157988.28
2023-01-12T19:22:01.126Z,157981.66
2023-01-12T19:24:48.008Z,157972.31
2023-01-12T19:27:34.368Z,157994.91
2023-01-12T19:30:02.812Z,157988.28
2023-01-12T19:32:31.275Z,158022.84
2023-01-12T19:35:10.368Z,158025.53
2023-01-12T19:37:40.456Z,158028.19
2023-01-12T19:40:27.995Z,158048.13
2023-01-12T19:43:14.157Z,158049.44
2023-01-12T19:45:46.572Z,158046.81
2023-01-12T19:48:16.583Z,158041.47
2023-01-12T19:50:45.296Z,158040.16
2023-01-12T19:53:21.457Z,158046.81
2023-01-12T19:55:52.898Z,158048.13
2023-01-12T19:58:25.550Z,158062.75
2023-01-12T20:00:55.201Z,158064.06
2023-01-12T20:03:25.611Z,158069.41
2023-01-12T20:05:54.893Z,158078.69
2023-01-12T20:08:25.138Z,158088.06
2023-01-12T20:10:55.480Z,158078.69
2023-01-12T20:13:23.674Z,158094.69
2023-01-12T20:15:52.922Z,158106.63
2023-01-12T20:18:21.063Z,158104.00
2023-01-12T20:20:49.411Z,158108.00
2023-01-12T20:23:17.999Z,158106.63
2023-01-12T20:25:46.517Z,158114.59
2023-01-12T20:28:15.831Z,158135.94
2023-01-12T20:30:44.743Z,158145.28
2023-01-12T20:33:12.631Z,158145.28
2023-01-12T20:35:45.709Z,158139.91
2023-01-12T20:38:16.111Z,158147.94
2023-01-12T20:40:46.316Z,158145.28
2023-01-12T20:43:14.707Z,158142.59
2023-01-12T20:45:44.621Z,158170.53
2023-01-12T20:48:14.234Z,158171.91
2023-01-12T20:50:44.835Z,158153.25
2023-01-12T20:53:14.677Z,158147.94
2023-01-12T20:55:44.395Z,158143.97
2023-01-12T20:58:12.405Z,158147.94
2023-01-12T21:00:41.152Z,158157.28
2023-01-12T21:03:10.534Z,158142.59
2023-01-12T21:05:43.670Z,158137.25
2023-01-12T21:08:12.347Z,158158.59
2023-01-12T21:10:49.641Z,158153.25
2023-01-12T21:13:18.184Z,158159.91
2023-01-12T21:15:46.495Z,158162.56
2023-01-12T21:18:14.069Z,158163.88
2023-01-12T21:20:44.122Z,158174.53
2023-01-12T21:23:11.724Z,158170.53
2023-01-12T21:25:44.393Z,158178.56
2023-01-12T21:28:12.964Z,158181.19
2023-01-12T21:30:41.657Z,158178.56
2023-01-12T21:33:11.063Z,158185.22
2023-01-12T21:35:39.121Z,158183.84
2023-01-12T21:38:07.867Z,158162.56
2023-01-12T21:40:37.370Z,158194.50
2023-01-12T21:43:13.682Z,158193.19
2023-01-12T21:45:43.726Z,158187.84
2023-01-12T21:48:13.053Z,158205.13
2023-01-12T21:50:41.236Z,158190.50
2023-01-12T21:53:09.494Z,158190.50
2023-01-12T21:55:37.331Z,158191.81
2023-01-12T21:58:05.237Z,158198.47
2023-01-12T22:00:33.329Z,158202.47
2023-01-12T22:03:01.268Z,158210.47
2023-01-12T22:05:29.632Z,158209.16
2023-01-12T22:07:58.350Z,158194.50
2023-01-12T22:10:31.096Z,158201.16
2023-01-12T22:13:00.388Z,158215.78
2023-01-12T22:15:29.999Z,158207.81
2023-01-12T22:17:58.151Z,158213.09
2023-01-12T22:20:28.247Z,158218.44
2023-01-12T22:22:56.213Z,158206.50
2023-01-12T22:25:24.009Z,158210.47
2023-01-12T22:27:52.173Z,158217.13
2023-01-12T22:30:22.230Z,158226.41
2023-01-12T22:32:53.754Z,158215.78
2023-01-12T22:35:22.568Z,158210.47
2023-01-12T22:37:50.358Z,158213.09
2023-01-12T22:40:18.684Z,158201.16
2023-01-12T22:43:04.859Z,158215.78
2023-01-12T22:45:34.739Z,158217.13
2023-01-12T22:48:04.662Z,158202.47
2023-01-12T22:50:33.291Z,158211.78
2023-01-12T22:53:01.098Z,158209.16
2023-01-12T22:55:29.347Z,158213.09
2023-01-12T22:57:57.126Z,158195.84
2023-01-12T23:00:25.514Z,158205.13
2023-01-12T23:03:05.655Z,158198.47
2023-01-12T23:05:36.596Z,158202.47
2023-01-12T23:08:06.131Z,158209.16
2023-01-12T23:10:34.666Z,158203.81
2023-01-12T23:13:21.825Z,158217.13
2023-01-12T23:15:53.707Z,158207.81
2023-01-12T23:18:27.500Z,158206.50
2023-01-12T23:21:02.081Z,158213.09
2023-01-12T23:23:31.100Z,158211.78
2023-01-12T23:26:03.729Z,158197.16
2023-01-12T23:28:36.873Z,158215.78
2023-01-12T23:31:11.667Z,158205.13
2023-01-12T23:33:39.836Z,158210.47
2023-01-12T23:36:11.078Z,158217.13
2023-01-12T23:38:38.808Z,158205.13
2023-01-12T23:41:27.102Z,158209.16
2023-01-12T23:43:57.163Z,158207.81
2023-01-12T23:46:25.848Z,158215.78
2023-01-12T23:48:56.766Z,158211.78
2023-01-12T23:51:27.110Z,158225.09
2023-01-12T23:53:59.681Z,158213.09
2023-01-12T23:56:30.144Z,158219.75
2023-01-12T23:58:58.243Z,158221.13
